Time;durP1;ratioP1;P1;durP2;ratioP2;P2;SDS_P1;SDS_P2;PMS_P1;PMS_P2;Temp;Humidity;BMP_temperature;BMP_pressure;BME280_temperature;BME280_humidity;BME280_pressure;Samples;Min_cycle;Max_cycle;Signal;HPM_P1;HPM_P2
2023/01/13 00:00:33;;;;;;;12.10;11.30;;;;;;;2.41;100.00;93084.91;5085080;28;20284;-89
2023/01/13 00:02:59;;;;;;;13.27;12.27;;;;;;;2.30;100.00;93061.69;5090965;28;20176;-87
2023/01/13 00:05:25;;;;;;;13.70;12.70;;;;;;;2.44;100.00;93084.50;5091128;28;20216;-90
2023/01/13 00:07:51;;;;;;;13.03;11.93;;;;;;;2.45;100.00;93080.91;5089487;28;20200;-90
2023/01/13 00:10:16;;;;;;;13.47;12.47;;;;;;;2.35;100.00;93092.75;5089959;28;20220;-94
2023/01/13 00:12:42;;;;;;;14.00;12.90;;;;;;;2.43;100.00;93088.06;5089789;28;20224;-84
2023/01/13 00:15:09;;;;;;;12.40;11.33;;;;;;;2.36;100.00;93081.44;5088844;28;20236;-90
2023/01/13 00:17:34;;;;;;;13.50;12.53;;;;;;;2.41;100.00;93090.06;5088731;28;20260;-92
2023/01/13 00:20:00;;;;;;;12.87;11.87;;;;;;;2.63;100.00;93095.56;5089972;28;20220;-89
2023/01/13 00:22:25;;;;;;;13.70;12.60;;;;;;;2.71;100.00;93090.06;5090049;28;20196;-92
2023/01/13 00:24:50;;;;;;;12.90;12.00;;;;;;;2.52;100.00;93101.44;5090362;28;20220;-89
2023/01/13 00:27:16;;;;;;;15.63;14.33;;;;;;;2.43;100.00;93093.22;5089758;28;20180;-91
2023/01/13 00:29:41;;;;;;;14.63;13.13;;;;;;;2.52;100.00;93083.41;5089406;28;20225;-90
2023/01/13 00:32:07;;;;;;;16.60;15.20;;;;;;;2.62;100.00;93088.81;5090650;28;20177;-89
2023/01/13 00:34:32;;;;;;;13.47;12.57;;;;;;;2.68;100.00;93087.94;5103442;28;20225;-90
2023/01/13 00:36:58;;;;;;;12.50;11.70;;;;;;;2.63;100.00;93085.25;5089795;28;20186;-91
2023/01/13 00:39:23;;;;;;;14.27;13.07;;;;;;;2.46;100.00;93076.56;5089092;28;20229;-88
2023/01/13 00:44:32;;;;;;;13.10;12.30;;;;;;;2.70;100.00;93071.25;5088774;28;20231;-89
2023/01/13 00:46:58;;;;;;;11.70;11.00;;;;;;;2.79;100.00;93072.53;5094423;28;20197;-89
2023/01/13 00:49:23;;;;;;;10.70;9.90;;;;;;;2.78;100.00;93070.97;5089760;28;20284;-87
2023/01/13 00:51:49;;;;;;;11.97;11.20;;;;;;;2.94;100.00;93090.16;5088419;28;20284;-87
2023/01/13 00:54:14;;;;;;;10.73;10.10;;;;;;;2.81;100.00;93067.94;5089636;28;20225;-91
2023/01/13 00:56:39;;;;;;;11.33;10.63;;;;;;;2.67;100.00;93078.66;5091512;28;20185;-88
2023/01/13 00:59:05;;;;;;;11.23;10.57;;;;;;;2.72;100.00;93079.56;5091532;28;20177;-90
2023/01/13 01:01:30;;;;;;;11.37;10.67;;;;;;;2.61;100.00;93072.59;5094358;28;20188;-86
2023/01/13 01:03:56;;;;;;;11.60;10.80;;;;;;;2.57;100.00;93070.66;5091922;28;20180;-87
2023/01/13 01:06:25;;;;;;;10.77;10.17;;;;;;;2.61;100.00;93067.44;5092534;28;20199;-89
2023/01/13 01:08:51;;;;;;;10.83;10.17;;;;;;;2.56;100.00;93077.59;5091356;28;20181;-88
2023/01/13 01:11:20;;;;;;;11.67;10.97;;;;;;;2.48;100.00;93069.38;5091550;28;20194;-88
2023/01/13 01:13:46;;;;;;;10.93;10.33;;;;;;;2.42;100.00;93054.78;5093197;28;20216;-89
2023/01/13 01:16:14;;;;;;;11.03;10.43;;;;;;;2.56;100.00;93066.50;5071944;28;20209;-89
2023/01/13 01:18:43;;;;;;;10.47;9.80;;;;;;;2.52;100.00;93071.28;5072469;28;20312;-89
2023/01/13 01:21:09;;;;;;;11.97;11.17;;;;;;;2.30;100.00;93046.25;5070864;28;20217;-88
2023/01/13 01:23:37;;;;;;;11.07;10.37;;;;;;;2.51;100.00;93066.38;5072925;28;20656;-90
2023/01/13 01:26:05;;;;;;;11.07;10.37;;;;;;;2.49;100.00;93070.97;5070648;28;20929;-87
2023/01/13 01:28:32;;;;;;;12.53;11.63;;;;;;;2.49;100.00;93071.72;5070998;28;20196;-89
2023/01/13 01:30:58;;;;;;;11.57;10.87;;;;;;;2.36;100.00;93025.56;5071659;28;20217;-90
2023/01/13 01:33:25;;;;;;;11.80;11.10;;;;;;;2.52;100.00;93060.22;5070247;28;20201;-89
2023/01/13 01:35:52;;;;;;;11.17;10.47;;;;;;;2.53;100.00;93062.59;5070016;28;20229;-84
2023/01/13 01:38:17;;;;;;;10.53;9.93;;;;;;;2.49;100.00;93042.63;5071516;28;20289;-89
2023/01/13 01:40:43;;;;;;;11.20;10.50;;;;;;;2.44;100.00;93037.34;5071017;28;20225;-88
2023/01/13 01:46:02;;;;;;;11.37;10.73;;;;;;;2.40;100.00;93042.13;5071273;28;20236;-87
2023/01/13 01:48:33;;;;;;;11.30;10.63;;;;;;;2.48;100.00;93053.91;5071494;28;20182;-88
2023/01/13 01:50:59;;;;;;;11.17;10.27;;;;;;;2.47;100.00;93042.84;5070082;28;20224;-89
2023/01/13 01:53:27;;;;;;;11.23;10.53;;;;;;;2.48;100.00;93023.78;5073117;28;20217;-90
2023/01/13 01:55:54;;;;;;;11.97;11.17;;;;;;;2.47;100.00;93042.84;5071173;28;20297;-89
2023/01/13 01:58:40;;;;;;;11.03;10.23;;;;;;;2.49;100.00;93052.94;5072128;28;20177;-85
2023/01/13 02:01:06;;;;;;;11.17;10.47;;;;;;;2.50;100.00;93042.41;5071574;28;20251;-89
2023/01/13 02:03:35;;;;;;;11.53;10.83;;;;;;;2.53;100.00;93051.47;5071610;28;20190;-90
2023/01/13 02:06:02;;;;;;;11.13;10.53;;;;;;;2.35;100.00;93018.03;5070980;28;20232;-89
2023/01/13 02:08:28;;;;;;;12.10;11.30;;;;;;;2.47;100.00;93037.69;5071698;28;20212;-88
2023/01/13 02:10:53;;;;;;;12.07;11.27;;;;;;;2.38;100.00;93033.06;5070447;28;20218;-87
2023/01/13 02:13:21;;;;;;;11.47;10.77;;;;;;;2.35;100.00;93036.84;5069626;28;20272;-89
2023/01/13 02:15:52;;;;;;;11.53;10.83;;;;;;;2.45;100.00;93049.19;5072727;28;20901;-89
2023/01/13 02:18:29;;;;;;;12.53;11.53;;;;;;;2.44;100.00;93042.50;5070841;28;20188;-88
2023/01/13 02:21:18;;;;;;;12.50;11.70;;;;;;;2.48;100.00;93038.47;5070150;28;20221;-89
2023/01/13 02:26:45;;;;;;;11.90;11.00;;;;;;;2.64;100.00;93054.09;5090197;28;20303;-90
2023/01/13 02:32:33;;;;;;;11.77;10.93;;;;;;;2.66;100.00;93046.16;5089929;28;20196;-87
2023/01/13 02:35:04;;;;;;;10.90;10.23;;;;;;;2.70;100.00;93052.44;5091773;28;20224;-87
2023/01/13 02:37:31;;;;;;;12.27;11.47;;;;;;;2.44;100.00;93043.28;5123929;28;20195;-88
2023/01/13 02:40:02;;;;;;;11.27;10.40;;;;;;;2.45;100.00;93055.16;5090419;28;20220;-90
2023/01/13 02:46:00;;;;;;;11.53;10.63;;;;;;;2.54;100.00;93051.25;5090519;28;20247;-89
2023/01/13 02:48:30;;;;;;;11.70;11.03;;;;;;;2.37;100.00;93046.94;5055113;28;20317;-88
2023/01/13 02:51:01;;;;;;;11.17;10.57;;;;;;;2.47;100.00;93050.56;5031680;28;20333;-89
2023/01/13 02:53:49;;;;;;;11.37;10.67;;;;;;;2.40;100.00;93049.06;5048284;28;20217;-89
2023/01/13 02:56:16;;;;;;;12.20;11.40;;;;;;;2.47;100.00;93053.16;5089662;28;20303;-90
2023/01/13 02:58:44;;;;;;;11.73;11.03;;;;;;;2.34;100.00;93037.84;5089733;28;20245;-89
2023/01/13 03:01:09;;;;;;;11.57;10.80;;;;;;;2.58;100.00;93052.41;5090473;28;20205;-89
2023/01/13 03:03:35;;;;;;;11.03;10.23;;;;;;;2.66;100.00;93052.06;5091492;28;20219;-90
2023/01/13 03:06:15;;;;;;;11.37;10.67;;;;;;;2.67;100.00;93050.28;5091601;28;20267;-85
2023/01/13 03:08:48;;;;;;;11.17;10.47;;;;;;;2.73;100.00;93057.16;5089899;28;20264;-90
2023/01/13 03:11:17;;;;;;;11.13;10.43;;;;;;;2.43;100.00;93017.75;5089696;28;20208;-83
2023/01/13 03:13:50;;;;;;;11.53;10.80;;;;;;;2.69;100.00;93056.03;5089691;28;20212;-88
2023/01/13 03:16:21;;;;;;;10.33;9.73;;;;;;;2.66;100.00;93057.22;5088634;28;20217;-86
2023/01/13 03:18:58;;;;;;;10.83;10.23;;;;;;;2.43;100.00;93052.00;5088826;28;20185;-81
2023/01/13 03:21:27;;;;;;;10.40;9.80;;;;;;;2.74;100.00;93061.31;5089893;28;20231;-88
2023/01/13 03:24:16;;;;;;;11.50;10.70;;;;;;;2.62;100.00;93058.69;5089146;28;20227;-87
2023/01/13 03:27:01;;;;;;;11.00;10.40;;;;;;;2.61;100.00;93049.41;5089822;28;20246;-89
2023/01/13 03:29:33;;;;;;;11.37;10.67;;;;;;;2.44;100.00;93047.63;5089593;28;20225;-88
2023/01/13 03:32:08;;;;;;;11.63;10.90;;;;;;;2.45;100.00;93044.84;5089111;28;20188;-89
2023/01/13 03:34:44;;;;;;;11.53;10.83;;;;;;;2.61;100.00;93064.06;5089536;28;20228;-89
2023/01/13 03:37:13;;;;;;;11.30;10.60;;;;;;;2.61;100.00;93064.06;5089790;28;20228;-88
2023/01/13 03:39:42;;;;;;;11.93;11.23;;;;;;;2.55;100.00;93070.09;5088454;28;20243;-89
2023/01/13 03:42:17;;;;;;;11.63;10.93;;;;;;;2.44;100.00;93052.78;5089057;28;20181;-87
2023/01/13 03:44:48;;;;;;;11.30;10.60;;;;;;;2.62;100.00;93071.56;5088633;28;20247;-89
2023/01/13 03:47:26;;;;;;;11.70;11.00;;;;;;;2.67;100.00;93069.13;5089641;28;20197;-89
2023/01/13 03:50:09;;;;;;;11.83;10.87;;;;;;;2.59;100.00;93061.69;5089355;28;20216;-89
2023/01/13 03:52:42;;;;;;;11.33;10.53;;;;;;;2.57;100.00;93058.56;5089589;28;20214;-88
2023/01/13 03:55:31;;;;;;;11.43;10.80;;;;;;;2.67;100.00;93070.91;5089109;28;20231;-89
2023/01/13 03:58:02;;;;;;;12.03;11.43;;;;;;;2.79;100.00;93071.72;5088630;28;20185;-88
2023/01/13 04:00:39;;;;;;;12.13;11.23;;;;;;;2.84;100.00;93056.38;5089239;28;20323;-89
2023/01/13 04:03:21;;;;;;;11.67;10.97;;;;;;;2.99;100.00;93074.81;5090280;28;20184;-89
2023/01/13 04:05:51;;;;;;;11.73;10.87;;;;;;;2.76;100.00;93061.84;5089559;28;20221;-89
2023/01/13 04:08:26;;;;;;;12.43;11.63;;;;;;;2.50;100.00;93064.81;5089985;28;20204;-88
2023/01/13 04:10:59;;;;;;;12.27;11.47;;;;;;;2.80;100.00;93068.16;5088361;28;20228;-88
2023/01/13 04:13:31;;;;;;;12.93;11.90;;;;;;;2.88;100.00;93070.44;5088752;28;20208;-88
2023/01/13 04:15:58;;;;;;;12.30;11.40;;;;;;;2.94;100.00;93067.72;5088883;28;20219;-87
2023/01/13 04:18:26;;;;;;;13.37;12.40;;;;;;;3.02;100.00;93075.16;5089132;28;20280;-89
2023/01/13 04:20:53;;;;;;;12.60;11.80;;;;;;;3.04;100.00;93080.09;5087186;28;20220;-89
2023/01/13 04:23:20;;;;;;;12.30;11.40;;;;;;;3.07;100.00;93080.44;5089774;28;20185;-89
2023/01/13 04:25:46;;;;;;;11.93;11.13;;;;;;;3.03;100.00;93078.53;5088024;28;20216;-85
2023/01/13 04:28:12;;;;;;;12.90;12.03;;;;;;;2.84;100.00;93048.66;5089905;28;20173;-86
2023/01/13 04:30:39;;;;;;;12.73;11.93;;;;;;;2.93;100.00;93067.94;5091665;28;20276;-88
2023/01/13 04:33:05;;;;;;;12.77;11.80;;;;;;;2.97;100.00;93084.56;5093563;28;20217;-90
2023/01/13 04:35:31;;;;;;;13.17;11.83;;;;;;;2.71;100.00;93084.91;5091674;28;20274;-87
2023/01/13 04:38:00;;;;;;;12.83;11.93;;;;;;;2.75;100.00;93068.03;5093888;28;20180;-88
2023/01/13 04:40:25;;;;;;;13.37;12.33;;;;;;;2.97;100.00;93085.34;5092562;28;20323;-88
2023/01/13 04:42:51;;;;;;;12.30;11.50;;;;;;;3.13;100.00;93073.59;5093111;28;20181;-88
2023/01/13 04:45:16;;;;;;;12.77;11.77;;;;;;;3.17;100.00;93090.22;5092838;28;20248;-85
2023/01/13 04:47:41;;;;;;;12.30;11.30;;;;;;;3.02;100.00;93082.09;5091923;28;20195;-76
2023/01/13 04:50:09;;;;;;;14.37;13.27;;;;;;;3.07;100.00;93077.06;5090562;28;20255;-76
2023/01/13 04:52:34;;;;;;;13.80;12.70;;;;;;;3.07;100.00;93074.47;5088947;28;20197;-76
2023/01/13 04:54:59;;;;;;;13.70;12.70;;;;;;;3.01;100.00;93076.16;5090799;28;20692;-76
2023/01/13 04:57:25;;;;;;;12.90;11.97;;;;;;;3.03;100.00;93081.09;5090318;28;20185;-76
2023/01/13 04:59:50;;;;;;;13.50;12.53;;;;;;;3.01;100.00;93096.00;5090558;28;20235;-77
2023/01/13 05:02:18;;;;;;;13.73;12.73;;;;;;;2.92;100.00;93072.34;5091686;28;20193;-77
2023/01/13 05:04:47;;;;;;;12.77;11.57;;;;;;;3.09;100.00;93085.38;5088833;28;20236;-77
2023/01/13 05:07:14;;;;;;;12.53;11.53;;;;;;;3.22;100.00;93092.94;5090520;28;20268;-78
2023/01/13 05:09:39;;;;;;;11.87;11.07;;;;;;;3.33;100.00;93092.94;5089596;28;20245;-77
2023/01/13 05:17:34;;;;;;;10.70;10.10;;;;;;;3.33;100.00;93094.75;5090580;28;20234;-83
2023/01/13 05:20:00;;;;;;;12.30;11.63;;;;;;;3.24;100.00;93102.00;5091914;28;20224;-77
2023/01/13 05:25:23;;;;;;;11.57;10.87;;;;;;;3.20;100.00;93082.03;5089969;28;20239;-79
2023/01/13 05:27:56;;;;;;;12.20;11.50;;;;;;;3.25;100.00;93084.75;5120726;28;20193;-76
2023/01/13 05:30:24;;;;;;;11.07;10.30;;;;;;;3.36;100.00;93096.88;5089455;28;20221;-75
2023/01/13 05:32:50;;;;;;;9.93;9.33;;;;;;;3.26;100.00;93086.31;5091687;28;20279;-79
2023/01/13 05:35:15;;;;;;;11.30;10.60;;;;;;;3.17;100.00;93087.63;5090020;28;20227;-85
2023/01/13 05:37:44;;;;;;;11.03;10.43;;;;;;;3.25;100.00;93098.41;5092167;28;20197;-87
2023/01/13 05:43:18;;;;;;;10.27;9.67;;;;;;;3.39;100.00;93091.25;5092812;28;20238;-75
2023/01/13 05:45:49;;;;;;;10.33;9.70;;;;;;;3.46;100.00;93099.66;5092874;28;20224;-72
2023/01/13 05:48:15;;;;;;;10.77;10.10;;;;;;;3.35;100.00;93086.78;5090970;28;20188;-74
2023/01/13 05:50:40;;;;;;;10.50;9.83;;;;;;;3.44;100.00;93091.34;5091339;28;20220;-77
2023/01/13 05:53:06;;;;;;;11.10;10.43;;;;;;;3.45;100.00;93092.94;5091506;28;20212;-74
2023/01/13 05:55:31;;;;;;;11.30;10.63;;;;;;;3.01;100.00;93039.28;5091082;28;20232;-71
2023/01/13 05:57:56;;;;;;;9.73;9.13;;;;;;;3.44;100.00;93096.50;5090414;28;20223;-74
2023/01/13 06:00:22;;;;;;;13.93;12.63;;;;;;;3.42;100.00;93093.41;5090241;28;20225;-74
2023/01/13 06:02:48;;;;;;;13.40;12.10;;;;;;;3.58;100.00;93108.19;5090319;28;20217;-72
2023/01/13 06:05:13;;;;;;;13.93;12.67;;;;;;;3.50;99.99;93105.19;5089798;28;20240;-75
2023/01/13 06:07:38;;;;;;;15.30;14.00;;;;;;;3.44;100.00;93116.41;5090983;28;20185;-69
2023/01/13 06:10:04;;;;;;;14.37;13.27;;;;;;;3.39;100.00;93117.06;5090181;28;20224;-74
2023/01/13 06:12:30;;;;;;;14.53;13.33;;;;;;;3.36;100.00;93124.47;5092110;28;20249;-86
2023/01/13 06:14:55;;;;;;;14.87;13.57;;;;;;;3.30;100.00;93123.53;5090952;28;20255;-85
2023/01/13 06:17:20;;;;;;;12.50;11.60;;;;;;;3.24;100.00;93120.06;5090048;28;20213;-87
2023/01/13 06:19:46;;;;;;;15.60;14.33;;;;;;;3.16;100.00;93114.41;5090625;28;20228;-88
2023/01/13 06:22:20;;;;;;;14.63;13.43;;;;;;;3.10;100.00;93133.38;5090954;28;20193;-92
2023/01/13 06:24:47;;;;;;;16.00;14.60;;;;;;;3.24;100.00;93132.16;5090453;28;20234;-88
2023/01/13 06:27:14;;;;;;;15.13;13.93;;;;;;;3.01;100.00;93119.22;5091173;28;20200;-88
2023/01/13 06:29:40;;;;;;;14.53;13.43;;;;;;;2.88;100.00;93114.25;5090161;28;20693;-88
2023/01/13 06:32:12;;;;;;;14.47;13.17;;;;;;;3.02;100.00;93125.94;5087909;28;20248;-87
2023/01/13 06:34:38;;;;;;;16.20;14.87;;;;;;;3.07;100.00;93128.66;5091892;28;20220;-86
2023/01/13 06:37:05;;;;;;;16.27;14.87;;;;;;;2.89;100.00;93119.19;5091128;28;20203;-88
2023/01/13 06:39:30;;;;;;;15.60;14.23;;;;;;;3.00;100.00;93125.38;5088768;28;20224;-88
2023/01/13 06:44:42;;;;;;;16.53;14.87;;;;;;;3.15;100.00;93123.19;5091211;28;20249;-87
2023/01/13 06:47:08;;;;;;;15.03;13.80;;;;;;;2.90;100.00;93125.13;5090085;28;20188;-85
2023/01/13 06:49:33;;;;;;;14.67;13.43;;;;;;;3.06;100.00;93132.25;5089626;28;20235;-88
2023/01/13 06:51:58;;;;;;;15.63;14.17;;;;;;;2.86;100.00;93119.59;5090591;28;20224;-87
2023/01/13 06:54:24;;;;;;;17.13;15.43;;;;;;;3.00;100.00;93130.53;5090741;28;20224;-88
2023/01/13 06:56:49;;;;;;;16.40;14.90;;;;;;;2.96;100.00;93124.22;5090673;28;20169;-88
2023/01/13 06:59:14;;;;;;;15.93;14.57;;;;;;;2.98;100.00;93106.75;5089883;28;20265;-85
2023/01/13 07:01:40;;;;;;;15.13;13.83;;;;;;;3.10;100.00;93110.16;5089894;28;20211;-87
2023/01/13 07:04:05;;;;;;;14.77;13.37;;;;;;;2.81;100.00;93104.03;5089407;28;20316;-87
2023/01/13 07:06:31;;;;;;;16.03;14.73;;;;;;;3.10;100.00;93121.25;5090731;28;20195;-88
2023/01/13 07:08:56;;;;;;;15.93;14.30;;;;;;;2.77;100.00;93140.78;5090907;28;20329;-87
2023/01/13 07:11:22;;;;;;;15.13;13.83;;;;;;;2.84;100.00;93111.31;5090504;28;20275;-88
2023/01/13 07:16:31;;;;;;;17.20;15.70;;;;;;;3.42;100.00;93139.06;5090109;28;20207;-88
2023/01/13 07:18:56;;;;;;;15.07;13.67;;;;;;;3.54;100.00;93127.72;5089592;28;20212;-86
2023/01/13 07:21:22;;;;;;;16.70;15.20;;;;;;;3.74;100.00;93129.97;5090287;28;20177;-87
2023/01/13 07:23:47;;;;;;;15.80;14.40;;;;;;;3.64;100.00;93137.50;5090554;28;20196;-84
2023/01/13 07:26:14;;;;;;;17.63;15.83;;;;;;;3.50;100.00;93126.63;5090538;28;20231;-87
2023/01/13 07:28:39;;;;;;;17.70;15.80;;;;;;;3.75;100.00;93140.09;5090044;28;20279;-88
2023/01/13 07:31:12;;;;;;;17.67;15.63;;;;;;;3.95;100.00;93134.59;5089122;28;20228;-86
2023/01/13 07:33:38;;;;;;;17.50;15.83;;;;;;;4.17;99.69;93133.00;5089352;28;20221;-87
2023/01/13 07:36:04;;;;;;;15.03;13.70;;;;;;;4.04;99.32;93123.72;5087895;28;20224;-85
2023/01/13 07:38:32;;;;;;;16.10;14.80;;;;;;;3.62;100.00;93134.34;5089534;28;20192;-87
2023/01/13 07:43:30;;;;;;;14.97;13.70;;;;;;;3.85;100.00;93121.44;5089522;28;20228;-87
2023/01/13 07:43:43;;;;;;;16.77;15.27;;;;;;;3.99;99.58;93105.50;5090528;28;20203;-87
2023/01/13 07:46:08;;;;;;;15.43;14.23;;;;;;;4.19;99.30;93121.44;5088838;28;20224;-87
2023/01/13 07:48:34;;;;;;;15.27;14.00;;;;;;;4.45;98.10;93118.34;5089041;28;20196;-86
2023/01/13 07:51:05;;;;;;;14.27;13.20;;;;;;;4.50;96.31;93128.00;5088694;28;20279;-87
2023/01/13 07:53:31;;;;;;;15.27;13.97;;;;;;;4.41;97.44;93134.53;5087950;28;20216;-85
2023/01/13 07:55:57;;;;;;;15.60;14.30;;;;;;;4.16;99.98;93123.69;5089946;28;20220;-87
2023/01/13 07:58:24;;;;;;;13.57;12.50;;;;;;;4.43;98.08;93132.50;5089369;28;20173;-85
2023/01/13 08:00:49;;;;;;;15.10;13.90;;;;;;;4.04;100.00;93117.75;5088801;28;20254;-86
2023/01/13 08:03:14;;;;;;;15.60;14.20;;;;;;;4.18;99.38;93134.56;5092013;28;20192;-87
2023/01/13 08:05:40;;;;;;;14.03;12.93;;;;;;;3.82;100.00;93132.22;5095448;28;20722;-86
2023/01/13 08:08:05;;;;;;;13.70;12.60;;;;;;;4.29;98.83;93137.16;5095026;28;20244;-84
2023/01/13 08:10:31;;;;;;;13.07;12.03;;;;;;;4.44;96.47;93118.56;5095340;28;20271;-88
2023/01/13 08:15:40;;;;;;;13.93;12.93;;;;;;;4.57;95.55;93142.38;5095752;28;20246;-87
2023/01/13 08:18:05;;;;;;;15.03;13.80;;;;;;;4.62;95.28;93132.13;5097323;28;20184;-87
2023/01/13 08:20:31;;;;;;;15.10;13.80;;;;;;;4.95;94.06;93152.13;5095557;28;20284;-86
2023/01/13 08:22:58;;;;;;;15.63;14.43;;;;;;;4.73;94.79;93146.06;5096880;28;20176;-87
2023/01/13 08:25:25;;;;;;;14.97;13.73;;;;;;;5.01;94.20;93146.06;5096293;28;20230;-88
2023/01/13 08:27:51;;;;;;;15.50;14.30;;;;;;;5.22;92.55;93142.00;5095810;28;20240;-86
2023/01/13 08:30:16;;;;;;;15.10;14.00;;;;;;;5.03;92.09;93114.78;5095997;28;20235;-88
2023/01/13 08:32:46;;;;;;;15.83;14.37;;;;;;;5.27;92.24;93149.88;5095263;28;20206;-87
2023/01/13 08:35:14;;;;;;;15.40;14.10;;;;;;;5.41;91.20;93143.38;5095334;28;20235;-88
2023/01/13 08:37:39;;;;;;;16.13;14.73;;;;;;;5.38;90.22;93146.44;5097111;28;20184;-87
2023/01/13 08:40:06;;;;;;;14.93;13.67;;;;;;;4.87;92.67;93127.41;5097289;28;20223;-88
2023/01/13 08:42:31;;;;;;;15.53;14.13;;;;;;;4.95;91.79;93113.31;5095291;28;20196;-86
2023/01/13 08:44:57;;;;;;;14.70;13.50;;;;;;;5.40;90.74;93127.06;5095679;28;20238;-87
2023/01/13 08:47:23;;;;;;;16.37;14.63;;;;;;;5.41;91.12;93143.38;5096378;28;20192;-87
2023/01/13 08:49:48;;;;;;;16.20;14.63;;;;;;;5.19;92.16;93138.09;5094415;28;20232;-87
2023/01/13 08:52:14;;;;;;;14.27;13.17;;;;;;;5.28;92.61;93121.16;5095923;28;20227;-86
2023/01/13 08:54:40;;;;;;;16.03;14.73;;;;;;;5.11;89.84;93085.91;5097261;28;20227;-87
2023/01/13 08:57:06;;;;;;;16.10;14.57;;;;;;;5.41;90.76;93130.44;5095865;28;20199;-87
2023/01/13 08:59:33;;;;;;;13.97;12.77;;;;;;;5.55;88.86;93142.84;5094478;28;20246;-88
2023/01/13 09:01:59;;;;;;;15.30;13.80;;;;;;;5.69;89.00;93143.31;5097437;28;20208;-83
2023/01/13 09:04:26;;;;;;;14.73;13.23;;;;;;;5.70;88.07;93147.47;5094366;28;20220;-87
2023/01/13 09:06:53;;;;;;;15.60;14.10;;;;;;;5.20;91.96;93144.06;5094901;28;20238;-85
2023/01/13 09:09:19;;;;;;;18.57;13.93;;;;;;;5.10;90.34;93126.56;5096281;28;20327;-86
2023/01/13 09:14:33;;;;;;;13.93;12.57;;;;;;;5.46;89.20;93135.69;5091763;28;20280;-86
2023/01/13 09:17:00;;;;;;;13.37;12.27;;;;;;;5.90;86.38;93140.81;5093522;28;20252;-86
2023/01/13 09:19:27;;;;;;;14.30;13.03;;;;;;;5.24;88.33;93127.03;5091405;28;20335;-86
2023/01/13 09:21:53;;;;;;;16.27;14.73;;;;;;;5.17;89.64;93116.06;5092360;28;20733;-87
2023/01/13 09:24:19;;;;;;;13.03;12.03;;;;;;;5.52;87.83;93132.16;5124386;28;20225;-88
2023/01/13 09:26:45;;;;;;;13.63;12.60;;;;;;;5.35;88.51;93136.56;5092265;28;20187;-86
2023/01/13 09:29:10;;;;;;;13.17;12.20;;;;;;;4.94;87.71;93099.63;5091514;28;20240;-88
2023/01/13 09:31:36;;;;;;;15.00;13.80;;;;;;;5.44;87.45;93129.97;5091718;28;20188;-84
2023/01/13 09:36:48;;;;;;;14.33;12.97;;;;;;;5.25;87.38;93133.78;5091308;28;20202;-86
2023/01/13 09:39:14;;;;;;;14.53;13.20;;;;;;;5.37;87.84;93130.09;5090720;28;20239;-87
2023/01/13 09:44:40;;;;;;;13.17;12.23;;;;;;;5.30;88.42;93123.50;5090916;28;20219;-86
2023/01/13 09:47:13;;;;;;;16.77;12.10;;;;;;;5.19;87.96;93114.81;5092129;28;20195;-87
2023/01/13 09:49:41;;;;;;;12.33;11.53;;;;;;;5.25;88.01;93136.38;5090748;28;20224;-86
2023/01/13 09:52:20;;;;;;;11.80;10.87;;;;;;;5.28;88.08;93115.19;5090367;28;20227;-87
2023/01/13 09:54:57;;;;;;;14.87;13.43;;;;;;;4.92;88.37;93060.25;5088622;28;20228;-88
2023/01/13 09:57:27;;;;;;;12.80;11.80;;;;;;;5.35;88.09;93131.38;5092007;28;20184;-86
2023/01/13 09:59:53;;;;;;;13.30;12.33;;;;;;;5.57;88.18;93134.84;5090733;28;20223;-87
2023/01/13 10:02:38;;;;;;;15.33;14.10;;;;;;;5.44;87.60;93122.19;5092671;28;20181;-87
2023/01/13 10:05:03;;;;;;;11.47;10.77;;;;;;;5.28;87.91;93120.38;5090765;28;20283;-87
2023/01/13 10:07:31;;;;;;;11.90;11.13;;;;;;;5.42;87.50;93100.94;5090251;28;20214;-88
2023/01/13 10:09:59;;;;;;;12.57;11.77;;;;;;;5.30;88.14;93118.34;5088477;28;20236;-86
2023/01/13 10:15:18;;;;;;;12.33;11.57;;;;;;;5.66;87.58;93115.31;5090957;28;20255;-87
2023/01/13 10:18:02;;;;;;;12.17;11.37;;;;;;;5.64;85.92;93068.91;5089689;28;20184;-87
2023/01/13 10:20:39;;;;;;;11.30;10.60;;;;;;;5.98;85.40;93119.69;5090710;28;20230;-87
2023/01/13 10:23:17;;;;;;;12.93;12.13;;;;;;;5.59;86.58;93123.22;5089583;28;20227;-87
2023/01/13 10:25:48;;;;;;;13.07;11.97;;;;;;;5.31;87.58;93112.94;5090833;28;20892;-86
2023/01/13 10:28:17;;;;;;;12.00;11.30;;;;;;;5.63;87.49;93118.38;5091564;28;20188;-88
2023/01/13 10:30:44;;;;;;;11.43;10.70;;;;;;;5.36;86.89;93112.22;5090676;28;20247;-85
2023/01/13 10:33:21;;;;;;;11.80;11.10;;;;;;;5.75;85.89;93103.53;5090849;28;20207;-87
2023/01/13 10:35:49;;;;;;;12.00;11.23;;;;;;;5.76;86.65;93103.28;5090136;28;20220;-87
2023/01/13 10:38:21;;;;;;;11.03;10.37;;;;;;;5.76;85.38;93108.47;5090497;28;20207;-84
2023/01/13 10:40:57;;;;;;;11.20;10.37;;;;;;;5.67;85.42;93080.59;5089366;28;20226;-87
2023/01/13 10:43:23;;;;;;;11.80;10.90;;;;;;;5.67;85.90;93098.72;5091232;28;20172;-84
2023/01/13 10:45:56;;;;;;;11.77;10.93;;;;;;;5.34;86.26;93083.97;5089388;28;20220;-85
2023/01/13 10:48:22;;;;;;;11.70;11.03;;;;;;;5.54;87.74;93099.06;5089210;28;20256;-84
2023/01/13 10:50:48;;;;;;;11.83;11.13;;;;;;;5.67;86.89;93093.56;5089361;28;20228;-85
2023/01/13 10:53:24;;;;;;;11.07;10.47;;;;;;;5.67;85.78;93093.56;5090851;28;20205;-85
2023/01/13 10:56:02;;;;;;;11.43;10.73;;;;;;;5.87;83.93;93097.25;5089675;28;20244;-85
2023/01/13 10:58:27;;;;;;;11.53;10.80;;;;;;;6.00;83.83;93102.13;5090275;28;20180;-84
2023/01/13 11:01:03;;;;;;;10.93;10.13;;;;;;;5.78;84.89;93096.06;5089603;28;20246;-85
2023/01/13 11:03:41;;;;;;;10.93;10.23;;;;;;;5.48;85.35;93100.00;5089811;28;20192;-84
2023/01/13 11:06:08;;;;;;;11.50;10.80;;;;;;;5.26;85.91;93075.84;5089937;28;20220;-85
2023/01/13 11:08:44;;;;;;;11.97;11.13;;;;;;;5.32;86.84;93082.66;5090002;28;20188;-86
2023/01/13 11:11:24;;;;;;;10.77;10.03;;;;;;;5.26;87.48;93091.38;5088803;28;20220;-86
2023/01/13 11:16:41;;;;;;;10.93;10.13;;;;;;;5.71;84.50;93082.47;5090072;28;20215;-85
2023/01/13 11:19:14;;;;;;;16.13;14.70;;;;;;;5.53;84.94;93077.56;5089293;28;20227;-85
2023/01/13 11:22:11;;;;;;;18.43;16.40;;;;;;;5.64;85.41;93078.50;5089742;28;20181;-85
2023/01/13 11:24:51;;;;;;;11.87;11.10;;;;;;;5.53;85.77;93087.13;5088395;28;20224;-86
2023/01/13 11:27:32;;;;;;;11.60;10.90;;;;;;;5.74;84.12;93073.47;5088804;28;20188;-86
2023/01/13 11:30:08;;;;;;;10.80;10.20;;;;;;;5.53;85.40;93077.56;5089970;28;20240;-86
2023/01/13 11:32:39;;;;;;;11.60;10.70;;;;;;;5.35;86.27;93075.22;5088821;28;20257;-85
2023/01/13 11:35:17;;;;;;;11.37;10.67;;;;;;;5.50;84.89;93077.25;5091745;28;20224;-84
2023/01/13 11:37:49;;;;;;;11.73;11.13;;;;;;;5.52;85.30;93080.38;5087968;28;20218;-86
2023/01/13 11:40:26;;;;;;;11.27;10.57;;;;;;;5.38;86.32;93079.91;5088641;28;20235;-83
2023/01/13 11:43:14;;;;;;;10.83;10.33;;;;;;;5.59;85.78;93079.19;5088265;28;20195;-85
2023/01/13 11:45:45;;;;;;;11.30;10.70;;;;;;;5.53;84.63;93066.41;5088505;28;20243;-86
2023/01/13 11:48:16;;;;;;;11.00;10.40;;;;;;;5.72;84.86;93070.31;5089480;28;20202;-85
2023/01/13 11:50:49;;;;;;;10.87;10.27;;;;;;;5.84;83.64;93068.44;5089269;28;20232;-83
2023/01/13 11:53:45;;;;;;;12.00;11.30;;;;;;;5.69;83.57;93057.84;5120147;28;20204;-85
2023/01/13 11:56:29;;;;;;;10.63;9.63;;;;;;;5.61;87.15;93078.97;5088479;28;20224;-86
2023/01/13 11:59:01;;;;;;;12.10;11.37;;;;;;;5.25;86.19;93058.72;5089473;28;20191;-84
2023/01/13 12:01:34;;;;;;;10.83;10.23;;;;;;;5.46;85.36;93070.97;5088992;28;20246;-85
2023/01/13 12:04:32;;;;;;;10.93;10.17;;;;;;;5.89;84.35;93068.53;5088518;28;20216;-85
2023/01/13 12:07:21;;;;;;;11.17;10.53;;;;;;;5.61;84.60;93066.00;5088274;28;20192;-85
2023/01/13 12:10:05;;;;;;;10.80;10.20;;;;;;;5.70;84.68;93062.00;5088008;28;20236;-86
2023/01/13 12:12:39;;;;;;;10.27;9.67;;;;;;;5.40;85.44;93058.97;5089416;28;20189;-85
2023/01/13 12:15:14;;;;;;;11.73;11.03;;;;;;;6.12;82.44;93055.34;5088974;28;20223;-86
2023/01/13 12:17:48;;;;;;;11.37;10.77;;;;;;;6.30;81.94;93055.06;5089126;28;20208;-85
2023/01/13 12:20:28;;;;;;;11.53;10.57;;;;;;;6.33;81.29;93057.19;5087086;28;20215;-85